createdAt,value
2023-02-03T00:01:37.728Z,77.93
2023-02-03T00:04:06.286Z,77.94
2023-02-03T00:06:35.106Z,77.59
2023-02-03T00:09:03.631Z,75.72
2023-02-03T00:11:32.505Z,75.98
2023-02-03T00:14:01.099Z,75.44
2023-02-03T00:16:29.533Z,75.18
2023-02-03T00:18:59.256Z,74.42
2023-02-03T00:21:27.591Z,73.41
2023-02-03T00:23:55.940Z,73.60
2023-02-03T00:26:26.046Z,73.20
2023-02-03T00:28:54.389Z,73.79
2023-02-03T00:31:24.787Z,74.25
2023-02-03T00:33:56.093Z,73.82
2023-02-03T00:36:26.819Z,73.40
2023-02-03T00:38:55.756Z,73.42
2023-02-03T00:41:24.819Z,73.97
2023-02-03T00:43:53.297Z,74.45
2023-02-03T00:46:21.566Z,74.54
2023-02-03T00:48:49.890Z,75.27
2023-02-03T00:51:18.256Z,75.90
2023-02-03T00:53:48.687Z,75.32
2023-02-03T00:56:16.986Z,74.58
2023-02-03T00:58:45.887Z,73.58
2023-02-03T01:01:14.293Z,72.83
2023-02-03T01:03:42.626Z,72.87
2023-02-03T01:06:13.800Z,73.26
2023-02-03T01:08:42.128Z,73.04
2023-02-03T01:11:14.086Z,72.53
2023-02-03T01:13:42.581Z,72.32
2023-02-03T01:16:12.221Z,72.16
2023-02-03T01:18:41.173Z,72.90
2023-02-03T01:21:11.677Z,72.90
2023-02-03T01:23:40.133Z,72.80
2023-02-03T01:26:12.888Z,72.82
2023-02-03T01:28:41.732Z,73.27
2023-02-03T01:31:11.728Z,72.85
2023-02-03T01:33:41.262Z,73.71
2023-02-03T01:36:10.138Z,73.63
2023-02-03T01:38:39.748Z,73.15
2023-02-03T01:41:10.933Z,73.73
2023-02-03T01:43:44.640Z,73.67
2023-02-03T01:46:25.823Z,73.70
2023-02-03T01:48:57.140Z,73.86
2023-02-03T01:51:26.019Z,73.96
2023-02-03T01:53:55.817Z,73.52
2023-02-03T01:56:29.509Z,73.93
2023-02-03T01:59:01.041Z,73.99
2023-02-03T02:01:31.793Z,74.26
2023-02-03T02:04:02.967Z,74.53
2023-02-03T02:06:31.770Z,74.70
2023-02-03T02:09:01.725Z,75.24
2023-02-03T02:11:30.904Z,75.25
2023-02-03T02:14:03.743Z,75.60
2023-02-03T02:16:47.133Z,75.38
2023-02-03T02:19:47.989Z,75.04
2023-02-03T02:22:22.770Z,75.55
2023-02-03T02:25:10.669Z,76.07
2023-02-03T02:28:10.482Z,76.42
2023-02-03T02:30:51.588Z,76.26
2023-02-03T02:33:33.531Z,75.96
2023-02-03T02:36:14.289Z,76.88
2023-02-03T02:38:51.303Z,76.50
2023-02-03T02:41:26.087Z,76.83
2023-02-03T02:44:01.854Z,77.32
2023-02-03T02:46:36.746Z,77.00
2023-02-03T02:49:15.001Z,77.00
2023-02-03T02:51:45.697Z,76.84
2023-02-03T02:54:17.926Z,77.07
2023-02-03T02:56:50.614Z,76.91
2023-02-03T02:59:18.968Z,76.69
2023-02-03T03:01:47.736Z,77.13
2023-02-03T03:04:22.192Z,77.42
2023-02-03T03:06:56.190Z,77.92
2023-02-03T03:09:29.754Z,77.97
2023-02-03T03:12:09.750Z,77.89
2023-02-03T03:14:42.536Z,77.97
2023-02-03T03:17:15.920Z,78.53
2023-02-03T03:19:51.749Z,78.47
2023-02-03T03:22:25.853Z,78.46
2023-02-03T03:24:59.653Z,78.32
2023-02-03T03:27:33.033Z,78.33
2023-02-03T03:30:06.435Z,79.09
2023-02-03T03:32:35.232Z,78.97
2023-02-03T03:35:06.768Z,78.95
2023-02-03T03:37:37.891Z,78.57
2023-02-03T03:40:13.465Z,78.55
2023-02-03T03:42:48.355Z,78.78
2023-02-03T03:45:21.070Z,78.67
2023-02-03T03:47:55.167Z,79.27
2023-02-03T03:50:29.549Z,78.82
2023-02-03T03:53:01.103Z,78.79
2023-02-03T03:55:32.612Z,78.97
2023-02-03T03:58:05.290Z,79.12
2023-02-03T04:00:37.328Z,79.37
2023-02-03T04:03:12.052Z,79.29
2023-02-03T04:05:42.616Z,79.04
2023-02-03T04:08:10.954Z,79.26
2023-02-03T04:10:41.334Z,78.97
2023-02-03T04:13:11.243Z,79.11
2023-02-03T04:15:40.121Z,78.97
2023-02-03T04:18:08.703Z,78.95
2023-02-03T04:20:36.962Z,79.36
2023-02-03T04:23:06.823Z,78.74
2023-02-03T04:25:35.105Z,79.08
2023-02-03T04:28:03.583Z,78.97
2023-02-03T04:30:31.912Z,78.94
2023-02-03T04:33:00.160Z,78.97
2023-02-03T04:35:28.442Z,78.83
2023-02-03T04:37:56.646Z,78.94
2023-02-03T04:40:26.746Z,79.00
2023-02-03T04:42:55.329Z,78.81
2023-02-03T04:45:23.887Z,78.98
2023-02-03T04:47:54.734Z,78.82
2023-02-03T04:50:23.113Z,79.30
2023-02-03T04:52:51.363Z,78.90
2023-02-03T04:55:19.620Z,78.77
2023-02-03T04:57:49.297Z,79.63
2023-02-03T05:00:17.959Z,79.23
2023-02-03T05:02:46.230Z,79.11
2023-02-03T05:05:14.630Z,79.44
2023-02-03T05:07:42.891Z,78.96
2023-02-03T05:10:11.730Z,78.82
2023-02-03T05:12:40.021Z,78.36
2023-02-03T05:15:10.518Z,78.29
2023-02-03T05:17:40.302Z,78.05
2023-02-03T05:20:09.790Z,78.00
2023-02-03T05:22:38.154Z,77.68
2023-02-03T05:25:07.390Z,78.33
2023-02-03T05:27:35.750Z,77.56
2023-02-03T05:30:04.029Z,77.58
2023-02-03T05:32:33.697Z,77.73
2023-02-03T05:35:01.965Z,77.71
2023-02-03T05:37:30.242Z,77.36
2023-02-03T05:40:18.714Z,77.17
2023-02-03T05:42:49.455Z,76.61
2023-02-03T05:45:18.325Z,76.68
2023-02-03T05:47:48.060Z,76.99
2023-02-03T05:50:16.724Z,77.33
2023-02-03T05:52:45.123Z,76.65
2023-02-03T05:55:13.535Z,77.25
2023-02-03T05:57:41.786Z,76.59
2023-02-03T06:00:11.360Z,76.55
2023-02-03T06:02:42.693Z,76.83
2023-02-03T06:05:12.372Z,76.49
2023-02-03T06:07:40.594Z,76.26
2023-02-03T06:10:09.863Z,75.92
2023-02-03T06:12:38.933Z,75.89
2023-02-03T06:15:07.972Z,75.94
2023-02-03T06:17:37.165Z,75.88
2023-02-03T06:20:05.771Z,75.75
2023-02-03T06:22:35.907Z,75.31
2023-02-03T06:25:04.566Z,75.89
2023-02-03T06:27:32.895Z,75.50
2023-02-03T06:30:01.119Z,75.32
2023-02-03T06:32:29.426Z,75.94
2023-02-03T06:34:57.694Z,75.28
2023-02-03T06:37:25.962Z,75.04
2023-02-03T06:39:55.795Z,75.29
2023-02-03T06:42:24.328Z,75.15
2023-02-03T06:44:52.613Z,74.75
2023-02-03T06:47:21.014Z,74.41
2023-02-03T06:49:49.257Z,74.30
2023-02-03T06:52:17.569Z,73.87
2023-02-03T06:54:45.883Z,73.63
2023-02-03T06:57:15.518Z,73.31
2023-02-03T06:59:43.888Z,73.13
2023-02-03T07:02:12.905Z,73.39
2023-02-03T07:04:41.391Z,73.80
2023-02-03T07:07:09.635Z,73.25
2023-02-03T07:09:37.892Z,73.44
2023-02-03T07:12:06.481Z,72.27
2023-02-03T07:14:36.908Z,72.01
2023-02-03T07:17:05.184Z,71.75
2023-02-03T07:19:33.446Z,72.36
2023-02-03T07:22:01.760Z,71.88
2023-02-03T07:24:30.032Z,72.75
2023-02-03T07:26:58.392Z,72.06
2023-02-03T07:29:26.637Z,72.61
2023-02-03T07:31:56.483Z,72.20
2023-02-03T07:34:24.779Z,73.34
2023-02-03T07:36:53.043Z,74.09
2023-02-03T07:39:21.370Z,74.97
2023-02-03T07:41:49.665Z,75.62
2023-02-03T07:44:18.147Z,77.29
2023-02-03T07:46:46.463Z,78.72
2023-02-03T07:49:16.500Z,79.44
2023-02-03T07:51:44.837Z,80.39
2023-02-03T07:54:13.096Z,80.22
2023-02-03T07:56:41.367Z,81.14
2023-02-03T07:59:09.745Z,81.09
2023-02-03T08:01:39.239Z,81.04
2023-02-03T08:04:08.767Z,81.29
2023-02-03T08:06:38.475Z,81.11
2023-02-03T08:09:07.862Z,81.89
2023-02-03T08:11:36.216Z,81.85
2023-02-03T08:14:04.559Z,81.77
2023-02-03T08:16:32.935Z,82.37
2023-02-03T08:19:01.222Z,82.70
2023-02-03T08:21:29.495Z,81.83
2023-02-03T08:23:59.187Z,82.58
2023-02-03T08:26:27.654Z,82.59
2023-02-03T08:28:56.100Z,82.51
2023-02-03T08:31:24.604Z,82.31
2023-02-03T08:33:52.920Z,82.84
2023-02-03T08:36:21.211Z,82.80
2023-02-03T08:38:49.504Z,82.82
2023-02-03T08:41:20.591Z,82.83
2023-02-03T08:43:49.469Z,83.10
2023-02-03T08:46:17.871Z,83.20
2023-02-03T08:48:46.260Z,82.60
2023-02-03T08:51:16.646Z,82.55
2023-02-03T08:53:45.331Z,82.88
2023-02-03T08:56:14.789Z,83.12
2023-02-03T08:58:44.441Z,83.19
2023-02-03T09:01:15.354Z,83.04
2023-02-03T09:03:44.168Z,83.24
2023-02-03T09:06:13.341Z,83.23
2023-02-03T09:08:41.699Z,83.28
2023-02-03T09:11:11.171Z,83.17
2023-02-03T09:13:39.854Z,83.87
2023-02-03T09:16:10.340Z,83.59
2023-02-03T09:18:38.684Z,83.71
2023-02-03T09:21:13.929Z,83.60
2023-02-03T09:23:49.296Z,83.81
2023-02-03T09:26:18.928Z,83.63
2023-02-03T09:28:47.199Z,83.87
2023-02-03T09:31:18.297Z,84.21
2023-02-03T09:33:48.098Z,83.67
2023-02-03T09:36:16.709Z,83.96
2023-02-03T09:38:45.020Z,84.33
2023-02-03T09:41:26.668Z,83.73
2023-02-03T09:44:00.383Z,84.20
2023-02-03T09:46:35.067Z,83.97
2023-02-03T09:49:10.634Z,84.30
2023-02-03T09:51:46.405Z,84.83
2023-02-03T09:54:20.806Z,84.57
2023-02-03T09:56:52.590Z,84.26
2023-02-03T09:59:21.254Z,84.26
2023-02-03T10:01:58.987Z,84.23
2023-02-03T10:04:38.037Z,84.19
2023-02-03T10:07:16.979Z,84.52
2023-02-03T10:10:03.224Z,84.31
2023-02-03T10:13:00.565Z,84.43
2023-02-03T10:15:53.410Z,84.14
2023-02-03T10:18:28.037Z,84.13
2023-02-03T10:21:01.464Z,84.02
2023-02-03T10:23:35.002Z,83.93
2023-02-03T10:26:06.449Z,83.96
2023-02-03T10:28:40.279Z,83.95
2023-02-03T10:31:18.231Z,83.98
2023-02-03T10:33:48.808Z,84.12
2023-02-03T10:36:22.058Z,84.23
2023-02-03T10:39:01.060Z,84.11
2023-02-03T10:41:32.577Z,84.47
2023-02-03T10:44:06.891Z,84.48
2023-02-03T10:46:39.006Z,84.80
2023-02-03T10:49:09.861Z,84.70
2023-02-03T10:51:42.857Z,84.61
2023-02-03T10:54:30.658Z,84.91
2023-02-03T10:57:07.386Z,84.90
2023-02-03T10:59:38.534Z,84.83
2023-02-03T11:02:10.863Z,84.97
2023-02-03T11:04:40.668Z,85.20
2023-02-03T11:07:25.719Z,84.73
2023-02-03T11:09:54.076Z,85.19
2023-02-03T11:12:22.655Z,84.99
2023-02-03T11:14:52.564Z,85.11
2023-02-03T11:17:23.129Z,85.04
2023-02-03T11:19:54.539Z,85.25
2023-02-03T11:22:31.027Z,85.42
2023-02-03T11:25:00.851Z,85.30
2023-02-03T11:27:33.324Z,85.20
2023-02-03T11:30:16.892Z,85.25
2023-02-03T11:32:48.008Z,85.35
2023-02-03T11:35:22.834Z,85.14
2023-02-03T11:37:53.764Z,84.79
2023-02-03T11:40:27.815Z,85.24
2023-02-03T11:43:16.837Z,85.05
2023-02-03T11:45:48.795Z,84.96
2023-02-03T11:48:24.260Z,85.20
2023-02-03T11:51:02.079Z,85.33
2023-02-03T11:53:56.225Z,84.99
2023-02-03T11:56:38.711Z,85.07
2023-02-03T11:59:29.262Z,85.17
2023-02-03T12:02:24.897Z,85.26
2023-02-03T12:05:07.879Z,85.36
2023-02-03T12:07:48.215Z,85.30
2023-02-03T12:10:30.547Z,85.45
2023-02-03T12:13:07.563Z,85.68
2023-02-03T12:16:00.551Z,85.51
2023-02-03T12:18:42.389Z,85.45
2023-02-03T12:21:32.613Z,85.61
2023-02-03T12:24:10.953Z,85.82
2023-02-03T12:26:48.774Z,85.65
2023-02-03T12:29:23.846Z,85.82
2023-02-03T12:32:02.711Z,85.98
2023-02-03T12:34:37.818Z,85.83
2023-02-03T12:37:10.680Z,85.80
2023-02-03T12:39:46.097Z,85.83
2023-02-03T12:42:20.863Z,85.69
2023-02-03T12:44:57.101Z,85.66
2023-02-03T12:47:31.749Z,85.99
2023-02-03T12:50:05.705Z,85.70
2023-02-03T12:52:41.922Z,85.83
2023-02-03T12:55:23.572Z,85.90
2023-02-03T12:58:00.406Z,85.70
2023-02-03T13:00:39.451Z,85.92
2023-02-03T13:03:17.623Z,85.96
2023-02-03T13:05:51.241Z,85.64
2023-02-03T13:08:27.756Z,86.08
2023-02-03T13:11:12.457Z,86.07
2023-02-03T13:13:49.242Z,86.40
2023-02-03T13:16:21.685Z,86.51
2023-02-03T13:18:55.669Z,86.46
2023-02-03T13:21:24.608Z,86.36
2023-02-03T13:23:53.151Z,86.94
2023-02-03T13:27:01.284Z,86.59
2023-02-03T13:29:47.323Z,86.88
2023-02-03T13:32:33.948Z,87.00
2023-02-03T15:19:41.684Z,74.67
2023-02-03T15:22:24.646Z,78.32
2023-02-03T15:24:55.524Z,80.50
2023-02-03T15:27:25.636Z,81.86
2023-02-03T15:29:57.414Z,82.66
2023-02-03T15:32:31.051Z,83.13
2023-02-03T15:35:04.105Z,83.60
2023-02-03T15:37:41.210Z,83.45
2023-02-03T15:40:15.673Z,84.00
2023-02-03T15:42:56.411Z,84.23
2023-02-03T15:45:31.961Z,84.18
2023-02-03T15:48:04.463Z,84.04
2023-02-03T15:50:37.537Z,83.92
2023-02-03T15:53:10.452Z,84.26
2023-02-03T15:55:44.187Z,84.16
2023-02-03T15:58:20.470Z,83.89
2023-02-03T16:00:54.118Z,84.15
2023-02-03T16:03:27.919Z,84.34
2023-02-03T16:05:57.817Z,84.41
2023-02-03T16:08:39.862Z,84.59
2023-02-03T16:11:28.906Z,84.87
2023-02-03T16:13:59.848Z,85.47
2023-02-03T16:16:32.044Z,85.30
2023-02-03T16:19:04.519Z,85.17
2023-02-03T16:21:37.239Z,85.22
2023-02-03T16:24:07.357Z,84.88
2023-02-03T16:26:38.614Z,84.78
2023-02-03T16:29:32.808Z,84.18
2023-02-03T16:32:19.242Z,84.17
2023-02-03T16:35:05.487Z,84.25
2023-02-03T16:38:01.658Z,84.31
2023-02-03T16:40:47.671Z,84.79
2023-02-03T16:43:34.742Z,84.36
2023-02-03T16:46:20.722Z,84.94
2023-02-03T16:49:07.026Z,85.00
2023-02-03T16:51:40.776Z,85.22
2023-02-03T16:54:13.191Z,85.62
2023-02-03T16:56:41.817Z,85.45
2023-02-03T16:59:10.716Z,85.66
2023-02-03T17:01:39.538Z,85.88
2023-02-03T17:04:08.313Z,85.26
2023-02-03T17:06:38.910Z,85.07
2023-02-03T17:09:07.910Z,85.45
2023-02-03T17:11:37.724Z,85.14
2023-02-03T17:14:06.128Z,85.42
2023-02-03T17:16:34.645Z,85.25
2023-02-03T17:19:03.035Z,85.19
2023-02-03T17:21:31.899Z,85.46
2023-02-03T17:24:00.985Z,85.76
2023-02-03T17:26:29.431Z,85.79
2023-02-03T17:29:03.280Z,85.55
2023-02-03T17:31:32.683Z,85.66
2023-02-03T17:34:01.933Z,86.35
2023-02-03T17:36:30.397Z,86.17
2023-02-03T17:55:32.105Z,86.18
2023-02-03T17:58:03.250Z,86.24
2023-02-03T18:00:33.429Z,85.86
2023-02-03T18:03:02.185Z,85.60
2023-02-03T18:05:32.566Z,86.00
2023-02-03T18:08:06.020Z,85.88
2023-02-03T18:10:40.723Z,85.76
2023-02-03T18:13:09.108Z,85.96
2023-02-03T18:15:38.972Z,86.35
2023-02-03T18:18:08.231Z,86.18
2023-02-03T18:20:36.626Z,86.65
2023-02-03T18:23:07.929Z,86.79
2023-02-03T18:25:37.058Z,86.35
2023-02-03T18:28:05.852Z,86.57
2023-02-03T18:30:34.374Z,86.83
2023-02-03T18:33:04.446Z,86.80
2023-02-03T18:35:34.394Z,86.87
2023-02-03T18:38:03.464Z,86.63
2023-02-03T18:40:32.089Z,86.74
2023-02-03T18:43:02.171Z,87.01
2023-02-03T18:45:34.414Z,86.52
2023-02-03T18:48:04.599Z,86.68
2023-02-03T18:50:33.196Z,86.86
2023-02-03T18:53:01.721Z,86.68
2023-02-03T18:55:30.139Z,87.07
2023-02-03T18:57:58.526Z,86.93
2023-02-03T19:00:27.242Z,86.92
2023-02-03T19:02:56.852Z,86.93
2023-02-03T19:05:26.924Z,86.59
2023-02-03T19:07:55.395Z,87.00
2023-02-03T19:10:23.857Z,87.30
2023-02-03T19:12:52.607Z,87.42
2023-02-03T19:15:21.215Z,86.90
2023-02-03T19:17:52.057Z,87.17
2023-02-03T19:20:21.019Z,86.90
2023-02-03T19:22:51.028Z,86.83
2023-02-03T19:25:19.608Z,87.25
2023-02-03T19:27:48.503Z,87.39
2023-02-03T19:30:21.110Z,87.05
2023-02-03T19:32:49.624Z,86.96
2023-02-03T19:35:19.908Z,87.33
2023-02-03T19:37:48.757Z,87.62
2023-02-03T19:40:19.531Z,87.64
2023-02-03T19:42:49.237Z,87.26
2023-02-03T19:45:18.523Z,87.14
2023-02-03T19:47:48.781Z,87.68
2023-02-03T19:50:18.524Z,87.05
2023-02-03T19:52:48.849Z,87.33
2023-02-03T19:55:19.400Z,87.43
2023-02-03T19:57:48.505Z,87.43
2023-02-03T20:00:18.325Z,87.23
2023-02-03T20:02:47.431Z,87.93
2023-02-03T20:05:17.696Z,87.45
2023-02-03T20:07:47.876Z,88.00
2023-02-03T20:10:17.022Z,87.58
2023-02-03T20:12:47.712Z,87.11
2023-02-03T20:15:16.194Z,87.41
2023-02-03T20:17:44.867Z,87.38
2023-02-03T20:20:13.491Z,87.42
2023-02-03T20:22:42.021Z,87.15
2023-02-03T20:25:10.796Z,87.67
2023-02-03T20:27:39.326Z,87.67
2023-02-03T20:30:10.770Z,87.59
2023-02-03T20:32:51.377Z,87.91
2023-02-03T20:35:20.310Z,88.14
2023-02-03T20:37:49.058Z,88.18
2023-02-03T20:40:22.650Z,88.21
2023-02-03T20:42:55.282Z,88.37
2023-02-03T20:45:25.840Z,88.48
2023-02-03T20:47:56.951Z,88.28
2023-02-03T20:50:40.656Z,88.42
2023-02-03T20:53:20.002Z,88.83
2023-02-03T20:55:51.947Z,88.57
2023-02-03T20:58:24.894Z,88.56
2023-02-03T21:00:57.417Z,88.80
2023-02-03T21:03:43.544Z,88.77
2023-02-03T21:06:17.540Z,88.23
2023-02-03T21:08:47.481Z,88.76
2023-02-03T21:11:18.063Z,88.75
2023-02-03T21:13:47.794Z,88.85
2023-02-03T21:16:20.582Z,89.03
2023-02-03T21:18:51.911Z,88.68
2023-02-03T21:21:25.123Z,88.75
2023-02-03T21:23:54.956Z,88.32
2023-02-03T21:26:25.366Z,88.28
2023-02-03T21:28:56.714Z,88.40
2023-02-03T21:31:29.861Z,88.34
2023-02-03T21:34:02.578Z,88.29
2023-02-03T21:36:37.820Z,88.19
2023-02-03T21:39:25.158Z,88.11
2023-02-03T21:41:53.935Z,87.95
2023-02-03T21:44:32.737Z,88.13
2023-02-03T21:47:09.656Z,87.85
2023-02-03T21:49:38.633Z,87.80
2023-02-03T21:52:14.113Z,87.77
2023-02-03T21:54:44.653Z,87.99
2023-02-03T21:57:15.593Z,87.82
2023-02-03T21:59:46.993Z,87.86
2023-02-03T22:02:53.404Z,87.85
2023-02-03T22:05:22.154Z,87.87
2023-02-03T22:07:50.789Z,87.70
2023-02-03T22:10:19.463Z,87.47
2023-02-03T22:12:48.212Z,87.79
2023-02-03T22:15:17.038Z,87.82
2023-02-03T22:17:49.796Z,87.81
2023-02-03T22:20:18.693Z,87.70
2023-02-03T22:22:47.336Z,87.64
2023-02-03T22:25:16.394Z,87.56
2023-02-03T22:27:45.528Z,87.91
2023-02-03T22:30:15.712Z,87.70
2023-02-03T22:32:44.233Z,87.92
2023-02-03T22:35:14.401Z,87.69
2023-02-03T22:37:42.918Z,87.73
2023-02-03T22:40:12.625Z,87.94
2023-02-03T22:42:41.639Z,87.94
2023-02-03T22:45:11.009Z,88.12
2023-02-03T22:47:39.928Z,88.11
2023-02-03T22:50:10.538Z,88.21
2023-02-03T22:52:40.831Z,87.92
2023-02-03T22:55:11.361Z,88.38
2023-02-03T22:57:41.338Z,88.04
2023-02-03T23:00:11.962Z,88.42
2023-02-03T23:02:40.620Z,88.50
2023-02-03T23:05:11.331Z,88.11
2023-02-03T23:07:41.683Z,88.10
2023-02-03T23:10:12.895Z,88.74
2023-02-03T23:12:41.492Z,88.41
2023-02-03T23:15:11.201Z,88.35
2023-02-03T23:17:40.272Z,88.33
2023-02-03T23:20:10.382Z,88.43
2023-02-03T23:22:40.281Z,88.53
2023-02-03T23:25:09.919Z,88.81
2023-02-03T23:27:38.686Z,88.59
2023-02-03T23:30:09.525Z,88.78
2023-02-03T23:32:38.425Z,88.64
2023-02-03T23:35:24.848Z,88.81
2023-02-03T23:37:55.508Z,89.10
2023-02-03T23:40:24.439Z,88.54
2023-02-03T23:42:54.497Z,88.77
2023-02-03T23:45:23.148Z,88.58
2023-02-03T23:47:51.802Z,88.63
2023-02-03T23:50:20.720Z,88.44
2023-02-03T23:52:49.368Z,88.57
2023-02-03T23:55:22.111Z,88.64
2023-02-03T23:57:51.362Z,88.66
